sensor_id;sensor_type;location;lat;lon;timestamp;P1;durP1;ratioP1;P2;durP2;ratioP2
6127;SDS011;7073;42.672;23.256;2023-12-20T00:01:29;30.02;;;15.20;;
6127;SDS011;7073;42.672;23.256;2023-12-20T00:10:37;32.55;;;14.15;;
6127;SDS011;7073;42.672;23.256;2023-12-20T00:13:32;36.30;;;17.50;;
6127;SDS011;7073;42.672;23.256;2023-12-20T00:16:33;25.27;;;12.75;;
6127;SDS011;7073;42.672;23.256;2023-12-20T00:19:02;27.08;;;12.63;;
6127;SDS011;7073;42.672;23.256;2023-12-20T00:21:34;27.00;;;13.07;;
6127;SDS011;7073;42.672;23.256;2023-12-20T00:24:01;25.67;;;13.07;;
6127;SDS011;7073;42.672;23.256;2023-12-20T00:26:28;27.83;;;13.18;;
6127;SDS011;7073;42.672;23.256;2023-12-20T00:28:56;19.17;;;9.25;;
6127;SDS011;7073;42.672;23.256;2023-12-20T00:31:23;21.48;;;11.45;;
6127;SDS011;7073;42.672;23.256;2023-12-20T00:33:52;24.27;;;10.40;;
6127;SDS011;7073;42.672;23.256;2023-12-20T00:36:20;27.20;;;12.00;;
6127;SDS011;7073;42.672;23.256;2023-12-20T00:38:47;22.80;;;10.82;;
6127;SDS011;7073;42.672;23.256;2023-12-20T00:41:32;22.45;;;11.52;;
6127;SDS011;7073;42.672;23.256;2023-12-20T00:44:40;26.65;;;11.68;;
6127;SDS011;7073;42.672;23.256;2023-12-20T00:47:10;33.40;;;14.10;;
6127;SDS011;7073;42.672;23.256;2023-12-20T00:49:44;26.95;;;12.50;;
6127;SDS011;7073;42.672;23.256;2023-12-20T00:52:19;26.02;;;13.45;;
6127;SDS011;7073;42.672;23.256;2023-12-20T00:54:54;24.65;;;12.93;;
6127;SDS011;7073;42.672;23.256;2023-12-20T01:04:34;31.70;;;12.93;;
6127;SDS011;7073;42.672;23.256;2023-12-20T01:07:43;27.40;;;13.13;;
6127;SDS011;7073;42.672;23.256;2023-12-20T01:10:15;25.17;;;12.43;;
6127;SDS011;7073;42.672;23.256;2023-12-20T01:13:04;31.85;;;13.57;;
6127;SDS011;7073;42.672;23.256;2023-12-20T01:16:20;23.40;;;10.32;;
6127;SDS011;7073;42.672;23.256;2023-12-20T02:43:00;28.00;;;14.55;;
6127;SDS011;7073;42.672;23.256;2023-12-20T02:45:28;17.52;;;9.68;;
6127;SDS011;7073;42.672;23.256;2023-12-20T02:48:04;35.95;;;17.63;;
6127;SDS011;7073;42.672;23.256;2023-12-20T02:50:41;33.67;;;16.52;;
6127;SDS011;7073;42.672;23.256;2023-12-20T03:05:28;32.08;;;15.15;;
6127;SDS011;7073;42.672;23.256;2023-12-20T03:08:22;27.63;;;14.02;;
6127;SDS011;7073;42.672;23.256;2023-12-20T03:10:50;26.30;;;11.30;;
6127;SDS011;7073;42.672;23.256;2023-12-20T03:13:18;25.63;;;11.85;;
6127;SDS011;7073;42.672;23.256;2023-12-20T03:15:46;26.00;;;12.75;;
6127;SDS011;7073;42.672;23.256;2023-12-20T03:18:15;41.70;;;18.10;;
6127;SDS011;7073;42.672;23.256;2023-12-20T03:20:42;32.22;;;15.55;;
6127;SDS011;7073;42.672;23.256;2023-12-20T03:23:09;33.90;;;17.15;;
6127;SDS011;7073;42.672;23.256;2023-12-20T03:25:37;37.50;;;17.35;;
6127;SDS011;7073;42.672;23.256;2023-12-20T03:28:04;35.10;;;16.85;;
6127;SDS011;7073;42.672;23.256;2023-12-20T03:30:31;35.30;;;16.83;;
6127;SDS011;7073;42.672;23.256;2023-12-20T03:32:58;30.45;;;15.50;;
6127;SDS011;7073;42.672;23.256;2023-12-20T03:35:27;35.33;;;18.70;;
6127;SDS011;7073;42.672;23.256;2023-12-20T03:37:54;35.33;;;17.98;;
6127;SDS011;7073;42.672;23.256;2023-12-20T03:40:22;36.55;;;17.90;;
6127;SDS011;7073;42.672;23.256;2023-12-20T03:42:52;36.90;;;17.90;;
6127;SDS011;7073;42.672;23.256;2023-12-20T03:45:24;38.60;;;19.10;;
6127;SDS011;7073;42.672;23.256;2023-12-20T03:47:53;36.38;;;17.10;;
6127;SDS011;7073;42.672;23.256;2023-12-20T03:50:35;29.20;;;15.68;;
6127;SDS011;7073;42.672;23.256;2023-12-20T04:03:52;42.60;;;21.55;;
6127;SDS011;7073;42.672;23.256;2023-12-20T04:17:05;37.85;;;18.60;;
6127;SDS011;7073;42.672;23.256;2023-12-20T04:19:38;35.78;;;16.33;;
6127;SDS011;7073;42.672;23.256;2023-12-20T04:22:16;31.92;;;16.70;;
6127;SDS011;7073;42.672;23.256;2023-12-20T04:24:47;29.33;;;15.23;;
6127;SDS011;7073;42.672;23.256;2023-12-20T04:30:11;24.33;;;12.80;;
6127;SDS011;7073;42.672;23.256;2023-12-20T04:36:29;25.10;;;13.07;;
6127;SDS011;7073;42.672;23.256;2023-12-20T04:39:00;25.20;;;13.05;;
6127;SDS011;7073;42.672;23.256;2023-12-20T04:41:41;26.77;;;13.85;;
6127;SDS011;7073;42.672;23.256;2023-12-20T04:44:14;25.42;;;13.43;;
6127;SDS011;7073;42.672;23.256;2023-12-20T04:46:41;27.63;;;14.07;;
6127;SDS011;7073;42.672;23.256;2023-12-20T04:49:13;24.55;;;12.50;;
6127;SDS011;7073;42.672;23.256;2023-12-20T04:52:10;28.55;;;12.48;;
6127;SDS011;7073;42.672;23.256;2023-12-20T04:54:56;25.08;;;12.68;;
6127;SDS011;7073;42.672;23.256;2023-12-20T04:58:04;29.52;;;13.20;;
6127;SDS011;7073;42.672;23.256;2023-12-20T05:01:31;19.90;;;11.75;;
6127;SDS011;7073;42.672;23.256;2023-12-20T05:03:58;24.83;;;13.00;;
6127;SDS011;7073;42.672;23.256;2023-12-20T05:06:27;25.02;;;12.65;;
6127;SDS011;7073;42.672;23.256;2023-12-20T05:08:59;29.50;;;14.40;;
6127;SDS011;7073;42.672;23.256;2023-12-20T05:11:26;26.10;;;13.63;;
6127;SDS011;7073;42.672;23.256;2023-12-20T05:13:54;26.67;;;14.02;;
6127;SDS011;7073;42.672;23.256;2023-12-20T05:16:22;29.50;;;15.80;;
6127;SDS011;7073;42.672;23.256;2023-12-20T05:18:49;43.17;;;17.77;;
6127;SDS011;7073;42.672;23.256;2023-12-20T05:21:18;35.92;;;18.05;;
6127;SDS011;7073;42.672;23.256;2023-12-20T05:24:07;36.33;;;17.55;;
6127;SDS011;7073;42.672;23.256;2023-12-20T05:26:41;26.75;;;14.02;;
6127;SDS011;7073;42.672;23.256;2023-12-20T05:29:14;36.03;;;15.27;;
6127;SDS011;7073;42.672;23.256;2023-12-20T05:32:06;36.53;;;16.88;;
6127;SDS011;7073;42.672;23.256;2023-12-20T05:34:33;32.38;;;16.23;;
6127;SDS011;7073;42.672;23.256;2023-12-20T05:37:00;38.78;;;17.55;;
6127;SDS011;7073;42.672;23.256;2023-12-20T05:39:29;44.55;;;21.92;;
6127;SDS011;7073;42.672;23.256;2023-12-20T05:41:56;38.25;;;19.45;;
6127;SDS011;7073;42.672;23.256;2023-12-20T05:44:23;50.00;;;23.15;;
6127;SDS011;7073;42.672;23.256;2023-12-20T05:46:50;50.80;;;25.88;;
6127;SDS011;7073;42.672;23.256;2023-12-20T05:49:17;69.88;;;35.22;;
6127;SDS011;7073;42.672;23.256;2023-12-20T05:51:48;63.78;;;30.50;;
6127;SDS011;7073;42.672;23.256;2023-12-20T05:54:16;63.90;;;31.25;;
6127;SDS011;7073;42.672;23.256;2023-12-20T05:56:47;71.15;;;35.03;;
6127;SDS011;7073;42.672;23.256;2023-12-20T05:59:17;76.20;;;34.35;;
6127;SDS011;7073;42.672;23.256;2023-12-20T06:01:44;86.22;;;36.83;;
6127;SDS011;7073;42.672;23.256;2023-12-20T06:04:11;81.78;;;34.92;;
6127;SDS011;7073;42.672;23.256;2023-12-20T06:06:42;78.30;;;34.67;;
6127;SDS011;7073;42.672;23.256;2023-12-20T06:09:10;81.32;;;33.78;;
6127;SDS011;7073;42.672;23.256;2023-12-20T06:11:40;77.57;;;36.45;;
6127;SDS011;7073;42.672;23.256;2023-12-20T06:14:09;75.47;;;34.03;;
6127;SDS011;7073;42.672;23.256;2023-12-20T06:16:38;72.25;;;30.67;;
6127;SDS011;7073;42.672;23.256;2023-12-20T06:19:13;79.35;;;34.85;;
6127;SDS011;7073;42.672;23.256;2023-12-20T06:21:43;78.25;;;34.83;;
6127;SDS011;7073;42.672;23.256;2023-12-20T06:24:11;74.00;;;33.58;;
6127;SDS011;7073;42.672;23.256;2023-12-20T06:26:39;80.72;;;32.47;;
6127;SDS011;7073;42.672;23.256;2023-12-20T06:29:06;79.05;;;31.27;;
6127;SDS011;7073;42.672;23.256;2023-12-20T06:31:35;97.90;;;36.10;;
6127;SDS011;7073;42.672;23.256;2023-12-20T06:34:02;82.40;;;30.65;;
6127;SDS011;7073;42.672;23.256;2023-12-20T06:36:29;83.75;;;33.40;;
6127;SDS011;7073;42.672;23.256;2023-12-20T06:38:56;98.78;;;37.55;;
6127;SDS011;7073;42.672;23.256;2023-12-20T06:41:24;128.30;;;44.67;;
6127;SDS011;7073;42.672;23.256;2023-12-20T06:43:51;88.97;;;35.80;;
6127;SDS011;7073;42.672;23.256;2023-12-20T06:50:07;100.60;;;37.63;;
6127;SDS011;7073;42.672;23.256;2023-12-20T06:52:44;104.05;;;36.75;;
6127;SDS011;7073;42.672;23.256;2023-12-20T06:55:11;129.50;;;46.45;;
6127;SDS011;7073;42.672;23.256;2023-12-20T06:57:40;107.68;;;40.35;;
6127;SDS011;7073;42.672;23.256;2023-12-20T07:00:24;128.15;;;45.05;;
6127;SDS011;7073;42.672;23.256;2023-12-20T07:02:57;144.63;;;47.60;;
6127;SDS011;7073;42.672;23.256;2023-12-20T07:05:35;130.48;;;47.70;;
6127;SDS011;7073;42.672;23.256;2023-12-20T07:08:14;122.25;;;47.67;;
6127;SDS011;7073;42.672;23.256;2023-12-20T07:10:43;103.13;;;38.50;;
6127;SDS011;7073;42.672;23.256;2023-12-20T07:13:15;116.10;;;45.85;;
6127;SDS011;7073;42.672;23.256;2023-12-20T07:15:46;115.75;;;46.45;;
6127;SDS011;7073;42.672;23.256;2023-12-20T07:18:13;107.18;;;46.03;;
6127;SDS011;7073;42.672;23.256;2023-12-20T07:20:41;103.28;;;46.95;;
6127;SDS011;7073;42.672;23.256;2023-12-20T07:23:11;110.47;;;48.03;;
6127;SDS011;7073;42.672;23.256;2023-12-20T07:25:38;97.65;;;41.28;;
6127;SDS011;7073;42.672;23.256;2023-12-20T07:28:05;96.05;;;41.47;;
6127;SDS011;7073;42.672;23.256;2023-12-20T07:30:40;111.05;;;42.35;;
6127;SDS011;7073;42.672;23.256;2023-12-20T07:33:13;126.40;;;53.33;;
6127;SDS011;7073;42.672;23.256;2023-12-20T07:38:31;108.85;;;46.05;;
6127;SDS011;7073;42.672;23.256;2023-12-20T07:40:58;108.38;;;46.22;;
6127;SDS011;7073;42.672;23.256;2023-12-20T07:43:38;126.38;;;50.38;;
6127;SDS011;7073;42.672;23.256;2023-12-20T07:46:06;114.70;;;45.05;;
6127;SDS011;7073;42.672;23.256;2023-12-20T07:48:33;107.85;;;45.72;;
6127;SDS011;7073;42.672;23.256;2023-12-20T07:51:01;107.97;;;46.20;;
6127;SDS011;7073;42.672;23.256;2023-12-20T07:53:29;112.40;;;44.40;;
6127;SDS011;7073;42.672;23.256;2023-12-20T07:55:57;110.70;;;47.33;;
6127;SDS011;7073;42.672;23.256;2023-12-20T07:58:25;114.45;;;45.83;;
6127;SDS011;7073;42.672;23.256;2023-12-20T08:01:00;111.82;;;46.97;;
6127;SDS011;7073;42.672;23.256;2023-12-20T08:06:18;99.20;;;42.60;;
6127;SDS011;7073;42.672;23.256;2023-12-20T08:08:49;97.45;;;41.75;;
6127;SDS011;7073;42.672;23.256;2023-12-20T08:11:52;100.82;;;45.25;;
6127;SDS011;7073;42.672;23.256;2023-12-20T08:14:21;97.15;;;42.08;;
6127;SDS011;7073;42.672;23.256;2023-12-20T08:16:53;95.38;;;41.15;;
6127;SDS011;7073;42.672;23.256;2023-12-20T08:19:22;85.90;;;40.60;;
6127;SDS011;7073;42.672;23.256;2023-12-20T08:21:59;88.65;;;42.53;;
6127;SDS011;7073;42.672;23.256;2023-12-20T08:24:56;89.15;;;39.40;;
6127;SDS011;7073;42.672;23.256;2023-12-20T08:27:38;92.05;;;40.78;;
6127;SDS011;7073;42.672;23.256;2023-12-20T08:30:26;83.70;;;41.35;;
6127;SDS011;7073;42.672;23.256;2023-12-20T08:33:00;78.90;;;39.50;;
6127;SDS011;7073;42.672;23.256;2023-12-20T08:35:37;77.97;;;38.75;;
6127;SDS011;7073;42.672;23.256;2023-12-20T08:38:05;85.68;;;40.42;;
6127;SDS011;7073;42.672;23.256;2023-12-20T08:40:31;86.53;;;41.10;;
6127;SDS011;7073;42.672;23.256;2023-12-20T08:43:00;90.68;;;42.08;;
6127;SDS011;7073;42.672;23.256;2023-12-20T08:45:27;96.22;;;45.60;;
6127;SDS011;7073;42.672;23.256;2023-12-20T08:47:54;106.03;;;47.05;;
6127;SDS011;7073;42.672;23.256;2023-12-20T08:50:21;102.88;;;46.10;;
6127;SDS011;7073;42.672;23.256;2023-12-20T08:52:50;121.57;;;51.60;;
6127;SDS011;7073;42.672;23.256;2023-12-20T08:55:30;126.25;;;53.28;;
6127;SDS011;7073;42.672;23.256;2023-12-20T08:58:02;131.10;;;58.17;;
6127;SDS011;7073;42.672;23.256;2023-12-20T09:00:34;121.20;;;58.42;;
6127;SDS011;7073;42.672;23.256;2023-12-20T09:03:10;127.13;;;57.22;;
6127;SDS011;7073;42.672;23.256;2023-12-20T09:05:38;123.40;;;53.28;;
6127;SDS011;7073;42.672;23.256;2023-12-20T09:08:11;118.93;;;51.80;;
6127;SDS011;7073;42.672;23.256;2023-12-20T09:10:47;115.53;;;47.35;;
6127;SDS011;7073;42.672;23.256;2023-12-20T09:13:17;122.70;;;51.38;;
6127;SDS011;7073;42.672;23.256;2023-12-20T09:15:46;117.25;;;49.05;;
6127;SDS011;7073;42.672;23.256;2023-12-20T09:18:13;116.63;;;49.50;;
6127;SDS011;7073;42.672;23.256;2023-12-20T09:20:45;123.28;;;50.90;;
6127;SDS011;7073;42.672;23.256;2023-12-20T09:23:12;128.85;;;56.05;;
6127;SDS011;7073;42.672;23.256;2023-12-20T09:25:40;123.13;;;53.28;;
6127;SDS011;7073;42.672;23.256;2023-12-20T09:28:07;128.57;;;53.35;;
6127;SDS011;7073;42.672;23.256;2023-12-20T09:30:35;129.27;;;56.75;;
6127;SDS011;7073;42.672;23.256;2023-12-20T09:33:04;134.82;;;55.88;;
6127;SDS011;7073;42.672;23.256;2023-12-20T09:35:36;127.20;;;57.05;;
6127;SDS011;7073;42.672;23.256;2023-12-20T09:38:03;123.43;;;55.22;;
6127;SDS011;7073;42.672;23.256;2023-12-20T09:40:31;117.82;;;49.90;;
6127;SDS011;7073;42.672;23.256;2023-12-20T09:43:01;146.55;;;58.65;;
6127;SDS011;7073;42.672;23.256;2023-12-20T09:45:30;130.48;;;57.28;;
6127;SDS011;7073;42.672;23.256;2023-12-20T09:47:59;134.23;;;54.63;;
6127;SDS011;7073;42.672;23.256;2023-12-20T09:50:27;129.80;;;54.63;;
6127;SDS011;7073;42.672;23.256;2023-12-20T09:52:55;137.00;;;58.97;;
6127;SDS011;7073;42.672;23.256;2023-12-20T09:55:25;132.55;;;59.58;;
6127;SDS011;7073;42.672;23.256;2023-12-20T09:57:54;143.82;;;62.38;;
6127;SDS011;7073;42.672;23.256;2023-12-20T10:00:21;130.25;;;53.80;;
6127;SDS011;7073;42.672;23.256;2023-12-20T10:02:49;121.82;;;53.65;;
6127;SDS011;7073;42.672;23.256;2023-12-20T10:05:25;134.00;;;56.90;;
6127;SDS011;7073;42.672;23.256;2023-12-20T10:07:53;134.95;;;57.63;;
6127;SDS011;7073;42.672;23.256;2023-12-20T10:10:20;137.85;;;57.22;;
6127;SDS011;7073;42.672;23.256;2023-12-20T10:13:00;135.73;;;56.20;;
6127;SDS011;7073;42.672;23.256;2023-12-20T10:15:28;116.53;;;52.00;;
6127;SDS011;7073;42.672;23.256;2023-12-20T10:17:56;137.88;;;57.28;;
6127;SDS011;7073;42.672;23.256;2023-12-20T10:20:26;133.80;;;57.85;;
6127;SDS011;7073;42.672;23.256;2023-12-20T10:22:54;126.28;;;57.20;;
6127;SDS011;7073;42.672;23.256;2023-12-20T10:25:21;126.88;;;56.13;;
6127;SDS011;7073;42.672;23.256;2023-12-20T10:27:49;123.45;;;54.85;;
6127;SDS011;7073;42.672;23.256;2023-12-20T10:30:17;127.07;;;55.42;;
6127;SDS011;7073;42.672;23.256;2023-12-20T10:32:44;126.13;;;57.10;;
6127;SDS011;7073;42.672;23.256;2023-12-20T10:35:11;108.80;;;50.75;;
6127;SDS011;7073;42.672;23.256;2023-12-20T10:37:40;119.13;;;52.72;;
6127;SDS011;7073;42.672;23.256;2023-12-20T10:40:10;119.85;;;53.88;;
6127;SDS011;7073;42.672;23.256;2023-12-20T10:42:39;112.30;;;53.38;;
6127;SDS011;7073;42.672;23.256;2023-12-20T10:45:08;114.07;;;51.55;;
6127;SDS011;7073;42.672;23.256;2023-12-20T10:47:35;106.88;;;50.17;;
6127;SDS011;7073;42.672;23.256;2023-12-20T10:50:04;122.55;;;55.47;;
6127;SDS011;7073;42.672;23.256;2023-12-20T10:52:32;107.50;;;51.95;;
6127;SDS011;7073;42.672;23.256;2023-12-20T10:57:31;113.75;;;51.97;;
6127;SDS011;7073;42.672;23.256;2023-12-20T10:59:59;122.35;;;56.33;;
6127;SDS011;7073;42.672;23.256;2023-12-20T11:04:59;102.32;;;50.83;;
6127;SDS011;7073;42.672;23.256;2023-12-20T11:07:35;100.53;;;47.45;;
6127;SDS011;7073;42.672;23.256;2023-12-20T11:10:13;101.85;;;47.90;;
6127;SDS011;7073;42.672;23.256;2023-12-20T11:12:46;95.80;;;47.85;;
6127;SDS011;7073;42.672;23.256;2023-12-20T11:15:17;94.25;;;47.30;;
6127;SDS011;7073;42.672;23.256;2023-12-20T11:17:45;108.53;;;51.08;;
6127;SDS011;7073;42.672;23.256;2023-12-20T11:20:12;90.85;;;46.28;;
6127;SDS011;7073;42.672;23.256;2023-12-20T11:22:39;99.45;;;48.30;;
6127;SDS011;7073;42.672;23.256;2023-12-20T11:25:20;106.53;;;49.40;;
6127;SDS011;7073;42.672;23.256;2023-12-20T11:28:07;104.22;;;52.17;;
6127;SDS011;7073;42.672;23.256;2023-12-20T11:30:41;114.68;;;55.35;;
6127;SDS011;7073;42.672;23.256;2023-12-20T11:33:13;105.05;;;50.10;;
6127;SDS011;7073;42.672;23.256;2023-12-20T11:35:41;112.30;;;54.50;;
6127;SDS011;7073;42.672;23.256;2023-12-20T11:38:08;113.43;;;51.42;;
6127;SDS011;7073;42.672;23.256;2023-12-20T11:40:37;109.82;;;52.35;;
6127;SDS011;7073;42.672;23.256;2023-12-20T11:43:04;117.38;;;53.25;;
6127;SDS011;7073;42.672;23.256;2023-12-20T11:45:31;118.95;;;57.10;;
6127;SDS011;7073;42.672;23.256;2023-12-20T11:48:00;115.38;;;53.90;;
6127;SDS011;7073;42.672;23.256;2023-12-20T11:50:28;118.53;;;58.42;;
6127;SDS011;7073;42.672;23.256;2023-12-20T11:52:56;129.15;;;59.30;;
6127;SDS011;7073;42.672;23.256;2023-12-20T11:55:23;128.15;;;59.20;;
6127;SDS011;7073;42.672;23.256;2023-12-20T11:57:51;127.10;;;58.72;;
6127;SDS011;7073;42.672;23.256;2023-12-20T12:00:19;126.22;;;56.15;;
6127;SDS011;7073;42.672;23.256;2023-12-20T12:02:56;121.85;;;57.78;;
6127;SDS011;7073;42.672;23.256;2023-12-20T12:05:24;116.53;;;55.03;;
6127;SDS011;7073;42.672;23.256;2023-12-20T12:07:51;128.18;;;56.63;;
6127;SDS011;7073;42.672;23.256;2023-12-20T12:10:18;128.80;;;61.60;;
6127;SDS011;7073;42.672;23.256;2023-12-20T12:12:45;122.78;;;57.80;;
6127;SDS011;7073;42.672;23.256;2023-12-20T12:15:14;114.63;;;56.00;;
6127;SDS011;7073;42.672;23.256;2023-12-20T12:17:41;112.97;;;56.20;;
6127;SDS011;7073;42.672;23.256;2023-12-20T12:20:08;125.47;;;59.13;;
6127;SDS011;7073;42.672;23.256;2023-12-20T12:22:37;119.75;;;58.40;;
6127;SDS011;7073;42.672;23.256;2023-12-20T12:25:10;125.43;;;60.97;;
6127;SDS011;7073;42.672;23.256;2023-12-20T12:27:39;127.53;;;61.90;;
6127;SDS011;7073;42.672;23.256;2023-12-20T12:30:08;127.93;;;61.25;;
6127;SDS011;7073;42.672;23.256;2023-12-20T12:32:39;123.85;;;61.28;;
6127;SDS011;7073;42.672;23.256;2023-12-20T12:35:07;128.10;;;63.83;;
6127;SDS011;7073;42.672;23.256;2023-12-20T12:37:35;127.18;;;58.90;;
6127;SDS011;7073;42.672;23.256;2023-12-20T12:40:05;118.35;;;54.63;;
6127;SDS011;7073;42.672;23.256;2023-12-20T12:42:32;117.38;;;57.40;;
6127;SDS011;7073;42.672;23.256;2023-12-20T12:45:00;128.23;;;58.22;;
6127;SDS011;7073;42.672;23.256;2023-12-20T12:47:26;120.97;;;55.95;;
6127;SDS011;7073;42.672;23.256;2023-12-20T12:49:55;115.13;;;51.17;;
6127;SDS011;7073;42.672;23.256;2023-12-20T12:52:23;113.38;;;51.22;;
6127;SDS011;7073;42.672;23.256;2023-12-20T12:54:50;121.57;;;52.53;;
6127;SDS011;7073;42.672;23.256;2023-12-20T12:57:17;109.03;;;49.00;;
6127;SDS011;7073;42.672;23.256;2023-12-20T12:59:44;107.35;;;47.20;;
6127;SDS011;7073;42.672;23.256;2023-12-20T13:02:12;109.60;;;49.20;;
6127;SDS011;7073;42.672;23.256;2023-12-20T13:04:39;107.38;;;53.70;;
6127;SDS011;7073;42.672;23.256;2023-12-20T13:07:07;103.75;;;47.78;;
6127;SDS011;7073;42.672;23.256;2023-12-20T13:09:36;97.72;;;45.75;;
6127;SDS011;7073;42.672;23.256;2023-12-20T13:12:04;104.25;;;47.38;;
6127;SDS011;7073;42.672;23.256;2023-12-20T13:14:36;106.72;;;46.95;;
6127;SDS011;7073;42.672;23.256;2023-12-20T13:17:03;107.13;;;47.42;;
6127;SDS011;7073;42.672;23.256;2023-12-20T13:19:31;109.75;;;47.70;;
6127;SDS011;7073;42.672;23.256;2023-12-20T13:21:58;100.88;;;47.10;;
6127;SDS011;7073;42.672;23.256;2023-12-20T13:24:27;99.15;;;45.35;;
6127;SDS011;7073;42.672;23.256;2023-12-20T13:26:54;106.05;;;48.40;;
6127;SDS011;7073;42.672;23.256;2023-12-20T13:29:21;112.90;;;48.65;;
6127;SDS011;7073;42.672;23.256;2023-12-20T13:31:48;111.13;;;49.05;;
6127;SDS011;7073;42.672;23.256;2023-12-20T13:34:16;121.15;;;50.92;;
6127;SDS011;7073;42.672;23.256;2023-12-20T13:36:43;110.65;;;49.55;;
6127;SDS011;7073;42.672;23.256;2023-12-20T13:39:12;116.05;;;47.92;;
6127;SDS011;7073;42.672;23.256;2023-12-20T13:41:41;106.18;;;47.33;;
6127;SDS011;7073;42.672;23.256;2023-12-20T13:44:08;112.20;;;50.33;;
6127;SDS011;7073;42.672;23.256;2023-12-20T13:46:37;120.53;;;49.75;;
6127;SDS011;7073;42.672;23.256;2023-12-20T13:49:04;113.00;;;47.75;;
6127;SDS011;7073;42.672;23.256;2023-12-20T13:51:31;113.15;;;49.38;;
6127;SDS011;7073;42.672;23.256;2023-12-20T13:53:58;119.43;;;49.08;;
6127;SDS011;7073;42.672;23.256;2023-12-20T13:56:25;114.95;;;51.33;;
6127;SDS011;7073;42.672;23.256;2023-12-20T13:58:53;127.60;;;54.38;;
6127;SDS011;7073;42.672;23.256;2023-12-20T14:01:20;127.78;;;55.38;;
6127;SDS011;7073;42.672;23.256;2023-12-20T14:03:47;145.07;;;62.40;;
6127;SDS011;7073;42.672;23.256;2023-12-20T14:06:15;148.88;;;64.18;;
6127;SDS011;7073;42.672;23.256;2023-12-20T14:08:43;151.65;;;63.97;;
6127;SDS011;7073;42.672;23.256;2023-12-20T14:11:10;175.55;;;74.82;;
6127;SDS011;7073;42.672;23.256;2023-12-20T14:13:37;198.00;;;75.53;;
6127;SDS011;7073;42.672;23.256;2023-12-20T14:16:06;161.48;;;68.30;;
6127;SDS011;7073;42.672;23.256;2023-12-20T14:18:33;159.80;;;67.53;;
6127;SDS011;7073;42.672;23.256;2023-12-20T14:21:00;157.80;;;72.28;;
6127;SDS011;7073;42.672;23.256;2023-12-20T14:23:27;155.38;;;68.05;;
6127;SDS011;7073;42.672;23.256;2023-12-20T14:25:53;168.52;;;71.35;;
6127;SDS011;7073;42.672;23.256;2023-12-20T14:28:23;180.45;;;73.00;;
6127;SDS011;7073;42.672;23.256;2023-12-20T14:30:50;173.45;;;70.25;;
6127;SDS011;7073;42.672;23.256;2023-12-20T14:33:19;166.10;;;71.25;;
6127;SDS011;7073;42.672;23.256;2023-12-20T14:35:46;178.30;;;77.38;;
6127;SDS011;7073;42.672;23.256;2023-12-20T14:38:13;149.07;;;57.47;;
6127;SDS011;7073;42.672;23.256;2023-12-20T14:40:40;175.55;;;71.35;;
6127;SDS011;7073;42.672;23.256;2023-12-20T14:43:07;183.82;;;77.65;;
6127;SDS011;7073;42.672;23.256;2023-12-20T14:45:34;183.32;;;75.88;;
6127;SDS011;7073;42.672;23.256;2023-12-20T14:48:02;171.68;;;72.07;;
6127;SDS011;7073;42.672;23.256;2023-12-20T14:50:30;173.50;;;71.05;;
6127;SDS011;7073;42.672;23.256;2023-12-20T14:52:58;190.70;;;77.28;;
6127;SDS011;7073;42.672;23.256;2023-12-20T14:55:25;175.13;;;72.75;;
6127;SDS011;7073;42.672;23.256;2023-12-20T14:57:55;180.57;;;73.05;;
6127;SDS011;7073;42.672;23.256;2023-12-20T15:00:22;193.88;;;74.30;;
6127;SDS011;7073;42.672;23.256;2023-12-20T15:02:49;192.70;;;76.30;;
6127;SDS011;7073;42.672;23.256;2023-12-20T15:05:16;174.85;;;70.97;;
6127;SDS011;7073;42.672;23.256;2023-12-20T15:07:45;183.32;;;72.38;;
6127;SDS011;7073;42.672;23.256;2023-12-20T15:10:13;195.10;;;73.72;;
6127;SDS011;7073;42.672;23.256;2023-12-20T15:12:42;182.25;;;74.80;;
6127;SDS011;7073;42.672;23.256;2023-12-20T15:15:10;188.05;;;74.38;;
6127;SDS011;7073;42.672;23.256;2023-12-20T15:17:37;184.10;;;72.13;;
6127;SDS011;7073;42.672;23.256;2023-12-20T15:20:04;193.88;;;77.45;;
6127;SDS011;7073;42.672;23.256;2023-12-20T15:22:31;196.65;;;76.38;;
6127;SDS011;7073;42.672;23.256;2023-12-20T15:25:02;205.32;;;76.65;;
6127;SDS011;7073;42.672;23.256;2023-12-20T15:27:31;196.98;;;78.78;;
6127;SDS011;7073;42.672;23.256;2023-12-20T15:30:00;196.63;;;78.15;;
6127;SDS011;7073;42.672;23.256;2023-12-20T15:32:27;204.18;;;79.97;;
6127;SDS011;7073;42.672;23.256;2023-12-20T15:34:54;191.30;;;77.72;;
6127;SDS011;7073;42.672;23.256;2023-12-20T15:37:21;202.50;;;79.97;;
6127;SDS011;7073;42.672;23.256;2023-12-20T15:39:51;188.90;;;74.13;;
6127;SDS011;7073;42.672;23.256;2023-12-20T15:42:20;173.77;;;68.55;;
6127;SDS011;7073;42.672;23.256;2023-12-20T15:44:47;164.23;;;67.90;;
6127;SDS011;7073;42.672;23.256;2023-12-20T15:47:14;194.88;;;81.18;;
6127;SDS011;7073;42.672;23.256;2023-12-20T15:49:40;198.55;;;81.85;;
6127;SDS011;7073;42.672;23.256;2023-12-20T15:52:08;187.52;;;77.35;;
6127;SDS011;7073;42.672;23.256;2023-12-20T15:54:35;191.68;;;76.32;;
6127;SDS011;7073;42.672;23.256;2023-12-20T15:57:04;190.20;;;77.15;;
6127;SDS011;7073;42.672;23.256;2023-12-20T15:59:32;207.98;;;88.43;;
6127;SDS011;7073;42.672;23.256;2023-12-20T16:01:59;204.40;;;84.05;;
6127;SDS011;7073;42.672;23.256;2023-12-20T16:04:27;199.25;;;82.32;;
6127;SDS011;7073;42.672;23.256;2023-12-20T16:06:54;206.45;;;86.60;;
6127;SDS011;7073;42.672;23.256;2023-12-20T16:09:21;194.15;;;81.75;;
6127;SDS011;7073;42.672;23.256;2023-12-20T16:11:48;186.02;;;80.40;;
6127;SDS011;7073;42.672;23.256;2023-12-20T16:14:16;187.82;;;78.00;;
6127;SDS011;7073;42.672;23.256;2023-12-20T16:16:46;197.63;;;82.72;;
6127;SDS011;7073;42.672;23.256;2023-12-20T16:19:13;189.93;;;79.15;;
6127;SDS011;7073;42.672;23.256;2023-12-20T16:21:40;197.95;;;82.60;;
6127;SDS011;7073;42.672;23.256;2023-12-20T16:24:07;209.65;;;89.57;;
6127;SDS011;7073;42.672;23.256;2023-12-20T16:26:34;193.10;;;79.55;;
6127;SDS011;7073;42.672;23.256;2023-12-20T16:29:01;196.88;;;80.85;;
6127;SDS011;7073;42.672;23.256;2023-12-20T16:31:28;194.52;;;78.75;;
6127;SDS011;7073;42.672;23.256;2023-12-20T16:33:58;193.90;;;80.28;;
6127;SDS011;7073;42.672;23.256;2023-12-20T16:36:49;195.02;;;84.13;;
6127;SDS011;7073;42.672;23.256;2023-12-20T16:39:18;205.88;;;85.32;;
6127;SDS011;7073;42.672;23.256;2023-12-20T16:41:46;193.77;;;83.93;;
6127;SDS011;7073;42.672;23.256;2023-12-20T16:44:13;201.70;;;85.78;;
6127;SDS011;7073;42.672;23.256;2023-12-20T16:46:40;198.63;;;86.90;;
6127;SDS011;7073;42.672;23.256;2023-12-20T16:49:09;208.32;;;84.55;;
6127;SDS011;7073;42.672;23.256;2023-12-20T16:51:36;196.63;;;83.78;;
6127;SDS011;7073;42.672;23.256;2023-12-20T16:54:03;201.60;;;82.35;;
6127;SDS011;7073;42.672;23.256;2023-12-20T16:56:30;199.20;;;85.88;;
6127;SDS011;7073;42.672;23.256;2023-12-20T16:58:57;209.45;;;92.38;;
6127;SDS011;7073;42.672;23.256;2023-12-20T17:01:24;220.80;;;94.20;;
6127;SDS011;7073;42.672;23.256;2023-12-20T17:03:51;247.63;;;107.15;;
6127;SDS011;7073;42.672;23.256;2023-12-20T17:06:20;299.80;;;139.50;;
6127;SDS011;7073;42.672;23.256;2023-12-20T17:08:48;266.02;;;123.80;;
6127;SDS011;7073;42.672;23.256;2023-12-20T17:11:16;205.48;;;92.13;;
6127;SDS011;7073;42.672;23.256;2023-12-20T17:13:44;222.70;;;106.13;;
6127;SDS011;7073;42.672;23.256;2023-12-20T17:16:10;229.82;;;106.85;;
6127;SDS011;7073;42.672;23.256;2023-12-20T17:18:38;274.52;;;124.32;;